sensor_id;sensor_type;location;lat;lon;timestamp;temperature;humidity
15922;DHT22;8060;50.948;3.146;2023-04-24T05:22:43;9.40;99.90
15922;DHT22;8060;50.948;3.146;2023-04-24T05:25:11;9.40;99.90
15922;DHT22;8060;50.948;3.146;2023-04-24T05:27:39;9.30;99.90
15922;DHT22;8060;50.948;3.146;2023-04-24T05:30:08;9.30;99.90
15922;DHT22;8060;50.948;3.146;2023-04-24T05:32:37;9.30;99.90
15922;DHT22;8060;50.948;3.146;2023-04-24T05:35:05;9.40;99.90
15922;DHT22;8060;50.948;3.146;2023-04-24T05:37:33;9.40;99.90
15922;DHT22;8060;50.948;3.146;2023-04-24T05:40:04;9.50;99.90
15922;DHT22;8060;50.948;3.146;2023-04-24T05:42:32;9.50;99.90
15922;DHT22;8060;50.948;3.146;2023-04-24T05:45:00;9.50;99.90
15922;DHT22;8060;50.948;3.146;2023-04-24T05:47:28;9.60;99.90
15922;DHT22;8060;50.948;3.146;2023-04-24T05:49:56;9.60;99.90
15922;DHT22;8060;50.948;3.146;2023-04-24T05:52:24;9.70;99.90
15922;DHT22;8060;50.948;3.146;2023-04-24T05:54:53;9.70;99.90
15922;DHT22;8060;50.948;3.146;2023-04-24T05:57:22;9.70;99.90
15922;DHT22;8060;50.948;3.146;2023-04-24T05:59:50;9.70;99.90
15922;DHT22;8060;50.948;3.146;2023-04-24T06:02:18;9.80;99.90
15922;DHT22;8060;50.948;3.146;2023-04-24T06:04:46;9.80;99.90
15922;DHT22;8060;50.948;3.146;2023-04-24T06:07:15;9.80;99.90
15922;DHT22;8060;50.948;3.146;2023-04-24T06:09:43;9.80;99.90
15922;DHT22;8060;50.948;3.146;2023-04-24T06:12:11;9.90;99.90
15922;DHT22;8060;50.948;3.146;2023-04-24T06:14:41;9.90;99.90
15922;DHT22;8060;50.948;3.146;2023-04-24T06:17:09;10.00;99.90
15922;DHT22;8060;50.948;3.146;2023-04-24T06:19:37;9.90;99.90
15922;DHT22;8060;50.948;3.146;2023-04-24T06:22:05;9.90;99.90
15922;DHT22;8060;50.948;3.146;2023-04-24T06:24:36;9.90;99.90
15922;DHT22;8060;50.948;3.146;2023-04-24T06:27:04;9.90;99.90
15922;DHT22;8060;50.948;3.146;2023-04-24T06:29:33;10.10;99.90
15922;DHT22;8060;50.948;3.146;2023-04-24T06:32:02;10.10;99.90
15922;DHT22;8060;50.948;3.146;2023-04-24T06:34:30;10.20;99.90
15922;DHT22;8060;50.948;3.146;2023-04-24T06:36:59;10.20;99.90
15922;DHT22;8060;50.948;3.146;2023-04-24T06:39:27;10.20;99.90
15922;DHT22;8060;50.948;3.146;2023-04-24T06:41:55;10.20;99.90
15922;DHT22;8060;50.948;3.146;2023-04-24T06:44:23;10.10;99.90
15922;DHT22;8060;50.948;3.146;2023-04-24T06:46:51;10.10;99.90
15922;DHT22;8060;50.948;3.146;2023-04-24T06:49:21;10.10;99.90
15922;DHT22;8060;50.948;3.146;2023-04-24T06:51:49;10.00;99.90
15922;DHT22;8060;50.948;3.146;2023-04-24T06:54:17;10.10;99.90
15922;DHT22;8060;50.948;3.146;2023-04-24T06:56:45;10.20;99.90
15922;DHT22;8060;50.948;3.146;2023-04-24T06:59:14;10.30;99.90
15922;DHT22;8060;50.948;3.146;2023-04-24T07:01:42;10.50;99.90
15922;DHT22;8060;50.948;3.146;2023-04-24T07:04:10;10.50;99.90
15922;DHT22;8060;50.948;3.146;2023-04-24T07:06:41;10.50;99.90
15922;DHT22;8060;50.948;3.146;2023-04-24T07:09:10;10.50;99.90
15922;DHT22;8060;50.948;3.146;2023-04-24T07:11:38;10.50;99.90
15922;DHT22;8060;50.948;3.146;2023-04-24T07:14:07;10.40;99.90
15922;DHT22;8060;50.948;3.146;2023-04-24T07:16:35;10.40;99.90
15922;DHT22;8060;50.948;3.146;2023-04-24T07:19:03;10.50;99.90
15922;DHT22;8060;50.948;3.146;2023-04-24T07:21:32;10.60;99.90
15922;DHT22;8060;50.948;3.146;2023-04-24T07:24:01;10.70;99.90
15922;DHT22;8060;50.948;3.146;2023-04-24T07:26:30;10.90;99.90
15922;DHT22;8060;50.948;3.146;2023-04-24T07:28:58;10.90;99.90
15922;DHT22;8060;50.948;3.146;2023-04-24T07:31:26;10.90;99.90
15922;DHT22;8060;50.948;3.146;2023-04-24T07:33:54;10.80;99.90
15922;DHT22;8060;50.948;3.146;2023-04-24T07:36:24;10.70;99.90
15922;DHT22;8060;50.948;3.146;2023-04-24T07:38:52;10.70;99.90
15922;DHT22;8060;50.948;3.146;2023-04-24T07:41:22;10.70;99.90
15922;DHT22;8060;50.948;3.146;2023-04-24T07:43:51;10.70;99.90
15922;DHT22;8060;50.948;3.146;2023-04-24T07:46:20;10.60;99.90
15922;DHT22;8060;50.948;3.146;2023-04-24T07:48:50;10.70;99.90
15922;DHT22;8060;50.948;3.146;2023-04-24T07:51:37;10.80;99.90
15922;DHT22;8060;50.948;3.146;2023-04-24T07:54:05;11.00;99.90
15922;DHT22;8060;50.948;3.146;2023-04-24T07:56:35;11.20;99.90
15922;DHT22;8060;50.948;3.146;2023-04-24T07:59:05;11.40;99.90
15922;DHT22;8060;50.948;3.146;2023-04-24T08:01:34;11.50;99.90
15922;DHT22;8060;50.948;3.146;2023-04-24T08:04:02;11.40;99.90
15922;DHT22;8060;50.948;3.146;2023-04-24T08:06:30;11.40;99.90
15922;DHT22;8060;50.948;3.146;2023-04-24T08:08:59;11.30;99.90
15922;DHT22;8060;50.948;3.146;2023-04-24T08:11:27;11.30;99.90
15922;DHT22;8060;50.948;3.146;2023-04-24T08:13:57;11.30;99.90
15922;DHT22;8060;50.948;3.146;2023-04-24T08:16:25;11.20;99.90
15922;DHT22;8060;50.948;3.146;2023-04-24T08:18:53;11.00;99.90
15922;DHT22;8060;50.948;3.146;2023-04-24T08:21:21;11.00;99.90
15922;DHT22;8060;50.948;3.146;2023-04-24T08:23:50;11.00;99.90
15922;DHT22;8060;50.948;3.146;2023-04-24T08:26:18;11.00;99.90
15922;DHT22;8060;50.948;3.146;2023-04-24T08:28:46;10.90;99.90
15922;DHT22;8060;50.948;3.146;2023-04-24T08:31:15;10.90;99.90
15922;DHT22;8060;50.948;3.146;2023-04-24T08:33:43;11.00;99.90
15922;DHT22;8060;50.948;3.146;2023-04-24T08:36:12;11.00;99.90
15922;DHT22;8060;50.948;3.146;2023-04-24T08:38:41;11.00;99.90
15922;DHT22;8060;50.948;3.146;2023-04-24T08:41:09;11.00;99.90
15922;DHT22;8060;50.948;3.146;2023-04-24T08:43:39;11.10;99.90
15922;DHT22;8060;50.948;3.146;2023-04-24T08:46:08;11.10;99.90
15922;DHT22;8060;50.948;3.146;2023-04-24T08:48:39;11.10;99.90
15922;DHT22;8060;50.948;3.146;2023-04-24T08:51:08;11.20;99.90
15922;DHT22;8060;50.948;3.146;2023-04-24T08:53:38;11.30;99.90
15922;DHT22;8060;50.948;3.146;2023-04-24T08:56:06;11.40;99.90
15922;DHT22;8060;50.948;3.146;2023-04-24T08:58:35;11.50;99.90
15922;DHT22;8060;50.948;3.146;2023-04-24T09:01:05;11.50;99.90
15922;DHT22;8060;50.948;3.146;2023-04-24T09:03:33;11.50;99.90
15922;DHT22;8060;50.948;3.146;2023-04-24T09:06:04;11.50;99.90
15922;DHT22;8060;50.948;3.146;2023-04-24T09:08:34;11.50;99.90
15922;DHT22;8060;50.948;3.146;2023-04-24T09:11:03;11.50;99.90
15922;DHT22;8060;50.948;3.146;2023-04-24T09:13:32;11.50;99.90
15922;DHT22;8060;50.948;3.146;2023-04-24T09:16:01;11.40;99.90
15922;DHT22;8060;50.948;3.146;2023-04-24T09:18:29;11.50;99.90
15922;DHT22;8060;50.948;3.146;2023-04-24T09:20:58;11.50;99.90
15922;DHT22;8060;50.948;3.146;2023-04-24T09:23:29;11.50;99.90
15922;DHT22;8060;50.948;3.146;2023-04-24T09:25:59;11.50;99.90
15922;DHT22;8060;50.948;3.146;2023-04-24T09:28:32;11.50;99.90
15922;DHT22;8060;50.948;3.146;2023-04-24T09:31:08;11.60;99.90
15922;DHT22;8060;50.948;3.146;2023-04-24T09:33:36;11.80;99.90
15922;DHT22;8060;50.948;3.146;2023-04-24T09:36:05;11.90;99.90
15922;DHT22;8060;50.948;3.146;2023-04-24T09:38:36;12.00;99.90
15922;DHT22;8060;50.948;3.146;2023-04-24T09:41:06;11.90;99.90
15922;DHT22;8060;50.948;3.146;2023-04-24T09:43:35;11.80;99.90
15922;DHT22;8060;50.948;3.146;2023-04-24T09:46:07;11.80;99.90
15922;DHT22;8060;50.948;3.146;2023-04-24T09:48:37;11.80;99.90
15922;DHT22;8060;50.948;3.146;2023-04-24T09:51:06;11.80;99.90
15922;DHT22;8060;50.948;3.146;2023-04-24T09:53:39;11.70;99.90
15922;DHT22;8060;50.948;3.146;2023-04-24T09:56:08;11.60;99.90
15922;DHT22;8060;50.948;3.146;2023-04-24T09:58:39;11.70;99.90
15922;DHT22;8060;50.948;3.146;2023-04-24T10:01:07;11.80;99.90
15922;DHT22;8060;50.948;3.146;2023-04-24T10:03:35;11.80;99.90
15922;DHT22;8060;50.948;3.146;2023-04-24T10:06:04;11.90;99.90
15922;DHT22;8060;50.948;3.146;2023-04-24T10:08:36;11.90;99.90
15922;DHT22;8060;50.948;3.146;2023-04-24T10:11:06;11.80;99.90
15922;DHT22;8060;50.948;3.146;2023-04-24T10:13:35;11.90;99.90
15922;DHT22;8060;50.948;3.146;2023-04-24T10:16:04;11.90;99.90
15922;DHT22;8060;50.948;3.146;2023-04-24T10:18:33;11.90;99.90
15922;DHT22;8060;50.948;3.146;2023-04-24T10:21:02;12.00;99.90
15922;DHT22;8060;50.948;3.146;2023-04-24T10:23:32;12.00;99.90
15922;DHT22;8060;50.948;3.146;2023-04-24T10:26:00;12.00;99.90
15922;DHT22;8060;50.948;3.146;2023-04-24T10:28:30;12.20;99.90
15922;DHT22;8060;50.948;3.146;2023-04-24T10:31:00;12.60;99.90
15922;DHT22;8060;50.948;3.146;2023-04-24T10:33:29;13.10;99.90
15922;DHT22;8060;50.948;3.146;2023-04-24T10:35:58;13.50;99.90
15922;DHT22;8060;50.948;3.146;2023-04-24T10:38:28;13.70;99.90
15922;DHT22;8060;50.948;3.146;2023-04-24T10:41:08;13.90;99.90
15922;DHT22;8060;50.948;3.146;2023-04-24T10:43:42;14.00;99.90
15922;DHT22;8060;50.948;3.146;2023-04-24T10:46:10;14.20;99.90
15922;DHT22;8060;50.948;3.146;2023-04-24T10:48:52;14.60;99.90
15922;DHT22;8060;50.948;3.146;2023-04-24T10:51:22;14.80;99.90
15922;DHT22;8060;50.948;3.146;2023-04-24T10:53:50;15.00;99.90
15922;DHT22;8060;50.948;3.146;2023-04-24T10:56:19;14.90;99.90
15922;DHT22;8060;50.948;3.146;2023-04-24T10:58:51;14.80;99.90
15922;DHT22;8060;50.948;3.146;2023-04-24T11:01:24;15.10;99.90
15922;DHT22;8060;50.948;3.146;2023-04-24T11:03:55;15.20;99.90
15922;DHT22;8060;50.948;3.146;2023-04-24T11:06:29;14.70;99.90
15922;DHT22;8060;50.948;3.146;2023-04-24T11:09:03;14.50;99.90
15922;DHT22;8060;50.948;3.146;2023-04-24T11:11:34;14.40;99.90
15922;DHT22;8060;50.948;3.146;2023-04-24T11:14:07;14.60;99.90
15922;DHT22;8060;50.948;3.146;2023-04-24T11:16:42;15.00;99.90
15922;DHT22;8060;50.948;3.146;2023-04-24T11:19:20;15.30;99.90
15922;DHT22;8060;50.948;3.146;2023-04-24T11:21:55;15.10;99.90
15922;DHT22;8060;50.948;3.146;2023-04-24T11:24:31;15.00;99.90
15922;DHT22;8060;50.948;3.146;2023-04-24T11:27:06;15.00;99.90
15922;DHT22;8060;50.948;3.146;2023-04-24T11:30:00;14.80;99.90
15922;DHT22;8060;50.948;3.146;2023-04-24T11:32:30;14.90;99.90
15922;DHT22;8060;50.948;3.146;2023-04-24T11:35:00;15.10;99.90
15922;DHT22;8060;50.948;3.146;2023-04-24T11:37:33;15.40;99.90
15922;DHT22;8060;50.948;3.146;2023-04-24T11:40:02;15.60;99.90
15922;DHT22;8060;50.948;3.146;2023-04-24T11:42:33;15.60;99.90
15922;DHT22;8060;50.948;3.146;2023-04-24T11:45:08;15.80;99.90
15922;DHT22;8060;50.948;3.146;2023-04-24T11:47:36;16.10;99.90
15922;DHT22;8060;50.948;3.146;2023-04-24T11:50:06;16.10;99.90
15922;DHT22;8060;50.948;3.146;2023-04-24T11:52:37;15.90;99.90
15922;DHT22;8060;50.948;3.146;2023-04-24T11:55:07;15.90;99.90
15922;DHT22;8060;50.948;3.146;2023-04-24T11:57:36;15.90;99.90
15922;DHT22;8060;50.948;3.146;2023-04-24T12:00:07;15.90;99.90
15922;DHT22;8060;50.948;3.146;2023-04-24T12:02:36;16.10;99.90
15922;DHT22;8060;50.948;3.146;2023-04-24T12:05:06;16.20;99.90
15922;DHT22;8060;50.948;3.146;2023-04-24T12:07:40;16.30;99.90
15922;DHT22;8060;50.948;3.146;2023-04-24T12:10:10;16.50;99.90
15922;DHT22;8060;50.948;3.146;2023-04-24T12:12:39;16.90;99.90
15922;DHT22;8060;50.948;3.146;2023-04-24T12:15:09;17.00;99.90
15922;DHT22;8060;50.948;3.146;2023-04-24T12:17:41;16.90;99.90
15922;DHT22;8060;50.948;3.146;2023-04-24T12:20:11;17.00;99.90
15922;DHT22;8060;50.948;3.146;2023-04-24T12:22:43;17.10;99.90
15922;DHT22;8060;50.948;3.146;2023-04-24T12:25:13;17.00;99.90
15922;DHT22;8060;50.948;3.146;2023-04-24T12:27:41;17.00;99.90
15922;DHT22;8060;50.948;3.146;2023-04-24T12:30:13;16.90;99.90
15922;DHT22;8060;50.948;3.146;2023-04-24T12:32:42;17.00;99.90
15922;DHT22;8060;50.948;3.146;2023-04-24T12:35:11;16.80;99.90
15922;DHT22;8060;50.948;3.146;2023-04-24T12:37:42;16.70;99.90
15922;DHT22;8060;50.948;3.146;2023-04-24T12:40:13;16.80;99.90
15922;DHT22;8060;50.948;3.146;2023-04-24T12:42:43;17.20;99.90
15922;DHT22;8060;50.948;3.146;2023-04-24T12:45:14;17.30;99.90
15922;DHT22;8060;50.948;3.146;2023-04-24T12:47:43;17.50;99.90
15922;DHT22;8060;50.948;3.146;2023-04-24T12:50:13;17.60;99.90
15922;DHT22;8060;50.948;3.146;2023-04-24T12:52:42;17.60;99.90
15922;DHT22;8060;50.948;3.146;2023-04-24T12:55:11;17.80;99.90
15922;DHT22;8060;50.948;3.146;2023-04-24T12:57:40;18.00;99.90
15922;DHT22;8060;50.948;3.146;2023-04-24T13:00:09;18.10;99.90
15922;DHT22;8060;50.948;3.146;2023-04-24T13:02:38;17.90;99.90
15922;DHT22;8060;50.948;3.146;2023-04-24T13:05:08;17.60;99.90
15922;DHT22;8060;50.948;3.146;2023-04-24T13:07:38;17.50;99.90
15922;DHT22;8060;50.948;3.146;2023-04-24T13:10:07;17.60;99.90
15922;DHT22;8060;50.948;3.146;2023-04-24T13:12:35;17.60;99.90
15922;DHT22;8060;50.948;3.146;2023-04-24T13:15:05;17.40;99.90
15922;DHT22;8060;50.948;3.146;2023-04-24T13:17:33;17.20;99.90
15922;DHT22;8060;50.948;3.146;2023-04-24T13:20:03;17.40;99.90
15922;DHT22;8060;50.948;3.146;2023-04-24T13:22:32;17.70;99.90
15922;DHT22;8060;50.948;3.146;2023-04-24T13:25:00;18.00;99.90
15922;DHT22;8060;50.948;3.146;2023-04-24T13:27:28;18.20;99.90
15922;DHT22;8060;50.948;3.146;2023-04-24T13:29:56;18.30;99.90
15922;DHT22;8060;50.948;3.146;2023-04-24T13:32:24;18.50;99.90
15922;DHT22;8060;50.948;3.146;2023-04-24T13:34:53;18.60;99.90
15922;DHT22;8060;50.948;3.146;2023-04-24T13:37:23;18.60;99.90
15922;DHT22;8060;50.948;3.146;2023-04-24T13:39:51;18.70;99.90
15922;DHT22;8060;50.948;3.146;2023-04-24T13:42:19;18.70;99.90
15922;DHT22;8060;50.948;3.146;2023-04-24T13:44:48;18.90;99.90
15922;DHT22;8060;50.948;3.146;2023-04-24T13:47:16;18.80;99.90
15922;DHT22;8060;50.948;3.146;2023-04-24T13:49:44;19.20;99.90
15922;DHT22;8060;50.948;3.146;2023-04-24T13:52:12;19.40;99.90
15922;DHT22;8060;50.948;3.146;2023-04-24T13:54:42;19.20;99.90
15922;DHT22;8060;50.948;3.146;2023-04-24T13:57:10;19.20;99.90
15922;DHT22;8060;50.948;3.146;2023-04-24T13:59:38;18.60;99.90
15922;DHT22;8060;50.948;3.146;2023-04-24T14:02:06;18.40;99.90
15922;DHT22;8060;50.948;3.146;2023-04-24T14:04:35;18.20;99.90
15922;DHT22;8060;50.948;3.146;2023-04-24T14:07:03;17.70;99.90
15922;DHT22;8060;50.948;3.146;2023-04-24T14:09:31;17.10;99.90
15922;DHT22;8060;50.948;3.146;2023-04-24T14:12:00;16.60;99.90
15922;DHT22;8060;50.948;3.146;2023-04-24T14:14:30;16.30;99.90
15922;DHT22;8060;50.948;3.146;2023-04-24T14:16:58;15.90;99.90
15922;DHT22;8060;50.948;3.146;2023-04-24T14:19:26;15.50;99.90
15922;DHT22;8060;50.948;3.146;2023-04-24T14:21:54;15.10;99.90
15922;DHT22;8060;50.948;3.146;2023-04-24T14:24:25;15.00;99.90
15922;DHT22;8060;50.948;3.146;2023-04-24T14:26:53;14.80;99.90
15922;DHT22;8060;50.948;3.146;2023-04-24T14:29:22;14.60;99.90
15922;DHT22;8060;50.948;3.146;2023-04-24T14:31:52;14.60;99.90
15922;DHT22;8060;50.948;3.146;2023-04-24T14:34:20;14.60;99.90
15922;DHT22;8060;50.948;3.146;2023-04-24T14:36:48;14.60;99.90
15922;DHT22;8060;50.948;3.146;2023-04-24T14:39:16;14.50;99.90
15922;DHT22;8060;50.948;3.146;2023-04-24T14:41:45;14.50;99.90
15922;DHT22;8060;50.948;3.146;2023-04-24T14:44:13;14.40;99.90
15922;DHT22;8060;50.948;3.146;2023-04-24T14:46:43;14.30;99.90
15922;DHT22;8060;50.948;3.146;2023-04-24T14:49:11;14.30;99.90
15922;DHT22;8060;50.948;3.146;2023-04-24T14:51:39;14.50;99.90
15922;DHT22;8060;50.948;3.146;2023-04-24T14:54:07;14.40;99.90
15922;DHT22;8060;50.948;3.146;2023-04-24T14:56:35;14.50;99.90
15922;DHT22;8060;50.948;3.146;2023-04-24T14:59:03;14.40;99.90
15922;DHT22;8060;50.948;3.146;2023-04-24T15:01:31;14.40;99.90
15922;DHT22;8060;50.948;3.146;2023-04-24T15:04:01;14.60;99.90
15922;DHT22;8060;50.948;3.146;2023-04-24T15:06:30;14.70;99.90
15922;DHT22;8060;50.948;3.146;2023-04-24T15:08:59;14.90;99.90
15922;DHT22;8060;50.948;3.146;2023-04-24T15:11:27;15.00;99.90
15922;DHT22;8060;50.948;3.146;2023-04-24T15:13:56;15.10;99.90
15922;DHT22;8060;50.948;3.146;2023-04-24T15:16:24;15.10;99.90
15922;DHT22;8060;50.948;3.146;2023-04-24T15:18:52;15.10;99.90
15922;DHT22;8060;50.948;3.146;2023-04-24T15:21:21;15.30;99.90
15922;DHT22;8060;50.948;3.146;2023-04-24T15:23:49;15.20;99.90
15922;DHT22;8060;50.948;3.146;2023-04-24T15:26:17;15.10;99.90
15922;DHT22;8060;50.948;3.146;2023-04-24T15:28:46;15.00;99.90
15922;DHT22;8060;50.948;3.146;2023-04-24T15:31:14;14.70;99.90
15922;DHT22;8060;50.948;3.146;2023-04-24T15:33:42;14.50;99.90
15922;DHT22;8060;50.948;3.146;2023-04-24T15:36:11;14.40;99.90
15922;DHT22;8060;50.948;3.146;2023-04-24T15:38:40;14.40;99.90
15922;DHT22;8060;50.948;3.146;2023-04-24T15:41:09;14.30;99.90
15922;DHT22;8060;50.948;3.146;2023-04-24T15:43:37;14.20;99.90
15922;DHT22;8060;50.948;3.146;2023-04-24T15:46:08;14.10;99.90
15922;DHT22;8060;50.948;3.146;2023-04-24T15:48:37;14.00;99.90
15922;DHT22;8060;50.948;3.146;2023-04-24T15:51:07;14.00;99.90
15922;DHT22;8060;50.948;3.146;2023-04-24T15:53:36;14.00;99.90
15922;DHT22;8060;50.948;3.146;2023-04-24T15:56:05;13.90;99.90
15922;DHT22;8060;50.948;3.146;2023-04-24T15:58:34;14.10;99.90
15922;DHT22;8060;50.948;3.146;2023-04-24T16:01:02;14.00;99.90
15922;DHT22;8060;50.948;3.146;2023-04-24T16:03:30;14.00;99.90
15922;DHT22;8060;50.948;3.146;2023-04-24T16:05:59;14.10;99.90
15922;DHT22;8060;50.948;3.146;2023-04-24T16:08:27;14.10;99.90
15922;DHT22;8060;50.948;3.146;2023-04-24T16:10:55;14.10;99.90
15922;DHT22;8060;50.948;3.146;2023-04-24T16:13:24;14.20;99.90
15922;DHT22;8060;50.948;3.146;2023-04-24T16:15:54;14.20;99.90
15922;DHT22;8060;50.948;3.146;2023-04-24T16:18:23;14.30;99.90
15922;DHT22;8060;50.948;3.146;2023-04-24T16:20:51;14.20;99.90
15922;DHT22;8060;50.948;3.146;2023-04-24T16:23:19;14.10;99.90
15922;DHT22;8060;50.948;3.146;2023-04-24T16:25:47;14.10;99.90
15922;DHT22;8060;50.948;3.146;2023-04-24T16:28:15;14.10;99.90
15922;DHT22;8060;50.948;3.146;2023-04-24T16:30:45;14.10;99.90
15922;DHT22;8060;50.948;3.146;2023-04-24T16:33:13;14.10;99.90
15922;DHT22;8060;50.948;3.146;2023-04-24T16:35:41;14.10;99.90
15922;DHT22;8060;50.948;3.146;2023-04-24T16:38:10;14.10;99.90
15922;DHT22;8060;50.948;3.146;2023-04-24T16:40:38;14.10;99.90
15922;DHT22;8060;50.948;3.146;2023-04-24T16:43:07;14.10;99.90
15922;DHT22;8060;50.948;3.146;2023-04-24T16:45:36;14.10;99.90
15922;DHT22;8060;50.948;3.146;2023-04-24T16:48:06;14.10;99.90
15922;DHT22;8060;50.948;3.146;2023-04-24T16:50:37;14.00;99.90
15922;DHT22;8060;50.948;3.146;2023-04-24T16:53:05;14.00;99.90
15922;DHT22;8060;50.948;3.146;2023-04-24T16:55:33;14.00;99.90
15922;DHT22;8060;50.948;3.146;2023-04-24T16:58:01;14.00;99.90
15922;DHT22;8060;50.948;3.146;2023-04-24T17:00:29;14.00;99.90
15922;DHT22;8060;50.948;3.146;2023-04-24T17:02:57;13.80;99.90
15922;DHT22;8060;50.948;3.146;2023-04-24T17:05:27;13.80;99.90
15922;DHT22;8060;50.948;3.146;2023-04-24T17:07:55;13.70;99.90
15922;DHT22;8060;50.948;3.146;2023-04-24T17:10:23;13.70;99.90
15922;DHT22;8060;50.948;3.146;2023-04-24T17:12:52;13.70;99.90
15922;DHT22;8060;50.948;3.146;2023-04-24T17:15:20;13.70;99.90
15922;DHT22;8060;50.948;3.146;2023-04-24T17:17:48;13.70;99.90
15922;DHT22;8060;50.948;3.146;2023-04-24T17:20:16;13.70;99.90
15922;DHT22;8060;50.948;3.146;2023-04-24T17:22:50;13.60;99.90
15922;DHT22;8060;50.948;3.146;2023-04-24T17:25:19;13.60;99.90
15922;DHT22;8060;50.948;3.146;2023-04-24T17:27:47;13.50;99.90
15922;DHT22;8060;50.948;3.146;2023-04-24T17:30:15;13.50;99.90
15922;DHT22;8060;50.948;3.146;2023-04-24T17:32:44;13.50;99.90
15922;DHT22;8060;50.948;3.146;2023-04-24T17:35:12;13.40;99.90
15922;DHT22;8060;50.948;3.146;2023-04-24T17:37:40;13.30;99.90
15922;DHT22;8060;50.948;3.146;2023-04-24T17:40:11;13.30;99.90
15922;DHT22;8060;50.948;3.146;2023-04-24T17:42:39;13.10;99.90
